createdAt,value
2023-02-19T00:00:02.040Z,82.6
2023-02-19T00:01:01.496Z,82.6
2023-02-19T00:02:01.984Z,82.4
2023-02-19T00:03:01.479Z,82.3
2023-02-19T00:04:01.951Z,82.1
2023-02-19T00:05:01.488Z,82
2023-02-19T00:06:03.557Z,82.2
2023-02-19T00:07:03.093Z,82
2023-02-19T00:08:01.885Z,81.9
2023-02-19T00:09:01.334Z,81.9
2023-02-19T00:10:01.812Z,82.1
2023-02-19T00:11:02.280Z,82
2023-02-19T00:12:03.477Z,82.2
2023-02-19T00:13:02.271Z,81.9
2023-02-19T00:14:03.416Z,82.1
2023-02-19T00:15:03.869Z,82.3
2023-02-19T00:16:01.729Z,82.4
2023-02-19T00:17:03.865Z,82.2
2023-02-19T00:18:01.631Z,82.4
2023-02-19T00:19:02.133Z,82.3
2023-02-19T00:20:03.336Z,82.4
2023-02-19T00:21:03.801Z,82.3
2023-02-19T00:22:01.562Z,82.1
2023-02-19T00:23:02.023Z,82.2
2023-02-19T00:24:01.570Z,82.1
2023-02-19T00:25:02.032Z,82.2
2023-02-19T00:26:17.162Z,82.1
2023-02-19T00:27:01.964Z,82
2023-02-19T00:28:01.408Z,82.1
2023-02-19T00:29:01.898Z,82
2023-02-19T00:30:01.437Z,82
2023-02-19T00:31:03.647Z,82
2023-02-19T00:32:03.031Z,82
2023-02-19T00:33:01.825Z,82.1
2023-02-19T00:34:02.282Z,82.2
2023-02-19T00:35:03.498Z,82.2
2023-02-19T00:36:02.271Z,82.1
2023-02-19T00:37:01.801Z,82.3
2023-02-19T00:38:03.908Z,82.4
2023-02-19T00:39:01.729Z,82.5
2023-02-19T00:40:02.194Z,82.6
2023-02-19T00:41:01.641Z,82.7
2023-02-19T00:42:03.778Z,82.9
2023-02-19T00:43:03.378Z,83.1
2023-02-19T00:44:03.794Z,83.3
2023-02-19T00:45:03.250Z,83.5
2023-02-19T00:46:02.081Z,83.8
2023-02-19T00:47:03.231Z,84.2
2023-02-19T00:48:02.037Z,84.5
2023-02-19T00:49:01.508Z,84.8
2023-02-19T00:50:01.982Z,85.1
2023-02-19T00:51:01.476Z,85.3
2023-02-19T00:52:01.960Z,85.5
2023-02-19T00:53:03.071Z,85.6
2023-02-19T00:54:01.900Z,85.7
2023-02-19T00:55:01.391Z,85.8
2023-02-19T00:56:03.575Z,85.9
2023-02-19T00:57:01.323Z,86
2023-02-19T00:58:01.794Z,86.1
2023-02-19T00:59:03.975Z,86.2
2023-02-19T01:00:01.791Z,86.2
2023-02-19T01:01:02.293Z,86.3
2023-02-19T01:02:01.719Z,86.3
2023-02-19T01:03:02.184Z,86.4
2023-02-19T01:04:01.629Z,86.5
2023-02-19T01:05:02.195Z,86.6
2023-02-19T01:06:01.629Z,86.6
2023-02-19T01:07:02.102Z,86.7
2023-02-19T01:08:01.565Z,86.7
2023-02-19T01:09:02.028Z,86.7
2023-02-19T01:10:01.566Z,86.7
2023-02-19T01:11:02.035Z,86.8
2023-02-19T01:12:01.469Z,86.8
2023-02-19T01:13:01.956Z,86.8
2023-02-19T01:14:03.061Z,86.9
2023-02-19T01:15:01.877Z,86.9
2023-02-19T01:16:01.454Z,86.9
2023-02-19T01:17:01.871Z,86.9
2023-02-19T01:18:01.304Z,86.9
2023-02-19T01:19:01.792Z,86.9
2023-02-19T01:20:01.342Z,86.8
2023-02-19T01:21:01.811Z,86.8
2023-02-19T01:22:02.267Z,86.7
2023-02-19T01:23:03.387Z,86.7
2023-02-19T01:24:02.284Z,86.6
2023-02-19T01:25:01.713Z,86.5
2023-02-19T01:26:02.214Z,86.6
2023-02-19T01:27:01.716Z,86.7
2023-02-19T01:28:03.864Z,86.7
2023-02-19T01:29:01.628Z,86.6
2023-02-19T01:30:03.865Z,86.6
2023-02-19T01:31:01.682Z,86.5
2023-02-19T01:32:02.318Z,86.6
2023-02-19T01:33:01.556Z,86.6
2023-02-19T01:34:02.047Z,86.6
2023-02-19T01:35:01.474Z,86.6
2023-02-19T01:36:02.042Z,86.6
2023-02-19T01:37:01.479Z,86.6
2023-02-19T01:38:01.979Z,86.6
2023-02-19T01:39:03.137Z,86.5
2023-02-19T01:40:01.952Z,86.5
2023-02-19T01:41:01.384Z,86.4
2023-02-19T01:42:01.871Z,86.4
2023-02-19T01:43:03.029Z,86.4
2023-02-19T01:44:01.789Z,86.5
2023-02-19T01:45:02.290Z,86.4
2023-02-19T01:46:01.801Z,86.4
2023-02-19T01:47:02.282Z,86.4
2023-02-19T01:48:01.717Z,86.4
2023-02-19T01:49:02.228Z,86.4
2023-02-19T01:50:01.714Z,86.4
2023-02-19T01:51:02.206Z,86.3
2023-02-19T01:52:01.714Z,86.3
2023-02-19T01:53:02.232Z,86.3
2023-02-19T01:54:01.639Z,86.3
2023-02-19T01:55:03.795Z,86.3
2023-02-19T01:56:01.563Z,86.2
2023-02-19T01:57:02.065Z,86.1
2023-02-19T01:58:03.246Z,86.1
2023-02-19T01:59:02.075Z,86.1
2023-02-19T02:00:03.241Z,86.1
2023-02-19T02:01:02.109Z,86.1
2023-02-19T02:02:03.168Z,86.1
2023-02-19T02:03:03.707Z,86.1
2023-02-19T02:04:01.423Z,86
2023-02-19T02:05:01.889Z,86
2023-02-19T02:06:01.406Z,86
2023-02-19T02:07:03.553Z,86
2023-02-19T02:08:01.336Z,86
2023-02-19T02:09:01.800Z,86
2023-02-19T02:10:02.282Z,86.1
2023-02-19T02:11:01.821Z,86
2023-02-19T02:12:02.278Z,86
2023-02-19T02:13:01.757Z,85.9
2023-02-19T02:14:02.288Z,85.8
2023-02-19T02:15:01.733Z,85.8
2023-02-19T02:16:02.220Z,85.7
2023-02-19T02:17:03.392Z,85.6
2023-02-19T02:18:03.044Z,85.6
2023-02-19T02:19:01.808Z,85.6
2023-02-19T02:20:02.303Z,85.6
2023-02-19T02:21:01.766Z,85.6
2023-02-19T02:22:02.200Z,85.6
2023-02-19T02:23:01.726Z,85.4
2023-02-19T02:24:02.208Z,85.3
2023-02-19T02:25:01.661Z,85.2
2023-02-19T02:26:02.140Z,85.2
2023-02-19T02:27:01.663Z,85
2023-02-19T02:28:02.120Z,84.9
2023-02-19T02:29:01.567Z,84.8
2023-02-19T02:30:02.097Z,84.7
2023-02-19T02:31:03.184Z,84.7
2023-02-19T02:32:02.110Z,84.7
2023-02-19T02:33:01.476Z,84.6
2023-02-19T02:34:01.961Z,84.5
2023-02-19T02:35:01.406Z,84.5
2023-02-19T02:36:01.890Z,84.5
2023-02-19T02:37:01.406Z,84.4
2023-02-19T02:38:03.557Z,84.3
2023-02-19T02:40:01.844Z,84.4
2023-02-19T02:41:02.295Z,84.4
2023-02-19T02:42:03.476Z,84.4
2023-02-19T02:43:03.962Z,84.5
2023-02-19T02:44:01.720Z,84.4
2023-02-19T02:45:02.219Z,84.3
2023-02-19T02:46:01.721Z,84.2
2023-02-19T02:47:02.209Z,84.3
2023-02-19T02:48:01.666Z,84
2023-02-19T02:49:02.118Z,84
2023-02-19T02:50:03.248Z,84
2023-02-19T02:51:02.042Z,84
2023-02-19T02:52:01.561Z,83.9
2023-02-19T02:53:02.080Z,83.9
2023-02-19T02:54:01.578Z,84
2023-02-19T02:55:02.778Z,83.9
2023-02-19T02:56:03.169Z,84
2023-02-19T02:57:01.978Z,84
2023-02-19T02:58:03.088Z,84
2023-02-19T02:59:01.981Z,84
2023-02-19T03:00:01.397Z,84
2023-02-19T03:01:03.611Z,83.9
2023-02-19T03:02:01.395Z,83.9
2023-02-19T03:03:01.789Z,83.9
2023-02-19T03:04:02.276Z,83.8
2023-02-19T03:05:03.505Z,83.7
2023-02-19T03:06:02.271Z,83.6
2023-02-19T03:07:01.710Z,83.6
2023-02-19T03:08:02.200Z,83.5
2023-02-19T03:09:01.720Z,83.6
2023-02-19T03:10:03.903Z,83.6
2023-02-19T03:11:01.672Z,83.5
2023-02-19T03:12:03.786Z,83.4
2023-02-19T03:13:01.555Z,83.3
2023-02-19T03:14:02.043Z,83.3
2023-02-19T03:15:01.559Z,83.3
2023-02-19T03:16:02.074Z,83.1
2023-02-19T03:17:02.443Z,83.1
2023-02-19T03:18:02.040Z,82.9
2023-02-19T03:19:01.481Z,83
2023-02-19T03:20:01.967Z,83.1
2023-02-19T03:21:01.413Z,83.1
2023-02-19T03:22:01.966Z,83.3
2023-02-19T03:23:01.393Z,83.1
2023-02-19T03:24:01.871Z,82.9
2023-02-19T03:25:01.389Z,82.9
2023-02-19T03:26:01.891Z,82.8
2023-02-19T03:28:01.800Z,82.7
2023-02-19T03:29:02.271Z,82.7
2023-02-19T03:30:01.840Z,82.9
2023-02-19T03:31:03.959Z,82.9
2023-02-19T03:32:03.504Z,82.7
2023-02-19T03:33:02.205Z,82.7
2023-02-19T03:34:01.636Z,82.7
2023-02-19T03:35:03.808Z,82.6
2023-02-19T03:36:01.564Z,82.6
2023-02-19T03:37:02.043Z,82.5
2023-02-19T03:38:03.234Z,82.5
2023-02-19T03:39:03.728Z,82.2
2023-02-19T03:40:01.500Z,82.1
2023-02-19T03:41:01.985Z,82.1
2023-02-19T03:42:01.485Z,81.9
2023-02-19T03:43:01.961Z,82
2023-02-19T03:44:01.402Z,82.2
2023-02-19T03:45:01.953Z,82
2023-02-19T03:46:01.534Z,82
2023-02-19T03:47:01.904Z,81.9
2023-02-19T03:48:01.332Z,82
2023-02-19T03:49:01.820Z,82.1
2023-02-19T03:50:02.306Z,82.2
2023-02-19T03:51:01.730Z,82.2
2023-02-19T03:52:02.303Z,82.2
2023-02-19T03:53:01.728Z,82.1
2023-02-19T03:54:02.203Z,82.2
2023-02-19T03:55:01.717Z,82.1
2023-02-19T03:56:02.201Z,81.9
2023-02-19T03:57:01.681Z,81.9
2023-02-19T03:58:02.159Z,82
2023-02-19T03:59:01.658Z,82
2023-02-19T04:00:02.120Z,81.8
2023-02-19T04:01:01.556Z,82.1
2023-02-19T04:02:02.127Z,81.9
2023-02-19T04:03:03.278Z,81.9
2023-02-19T04:04:02.043Z,81.8
2023-02-19T04:05:01.525Z,81.6
2023-02-19T04:06:03.711Z,81.9
2023-02-19T04:07:01.481Z,82
2023-02-19T04:08:03.686Z,81.7
2023-02-19T04:09:01.406Z,81.7
2023-02-19T04:10:01.878Z,81.7
2023-02-19T04:11:03.001Z,81.7
2023-02-19T04:12:01.798Z,81.7
2023-02-19T04:13:02.285Z,81.5
2023-02-19T04:14:03.503Z,81.5
2023-02-19T04:15:02.274Z,81.4
2023-02-19T04:16:02.651Z,81.3
2023-02-19T04:17:02.272Z,81.4
2023-02-19T04:18:01.753Z,81.4
2023-02-19T04:19:02.206Z,81.4
2023-02-19T04:20:01.723Z,81.4
2023-02-19T04:21:02.208Z,81.5
2023-02-19T04:22:01.655Z,81.2
2023-02-19T04:23:02.139Z,81.3
2023-02-19T04:24:01.640Z,81.4
2023-02-19T04:25:02.128Z,81.2
2023-02-19T04:26:03.248Z,81.2
2023-02-19T04:27:02.053Z,81.3
2023-02-19T04:28:01.498Z,81.4
2023-02-19T04:29:01.980Z,81.5
2023-02-19T04:30:01.587Z,81.4
2023-02-19T04:31:03.726Z,81.7
2023-02-19T04:32:01.557Z,81.6
2023-02-19T04:33:03.561Z,81.7
2023-02-19T04:34:01.428Z,81.8
2023-02-19T04:35:01.870Z,82
2023-02-19T04:36:01.406Z,82.2
2023-02-19T04:37:01.877Z,82.2
2023-02-19T04:39:01.812Z,82.4
2023-02-19T04:40:02.265Z,82.4
2023-02-19T04:41:01.796Z,82.2
2023-02-19T04:42:02.283Z,82.2
2023-02-19T04:43:01.709Z,82.2
2023-02-19T04:44:02.213Z,82.2
2023-02-19T04:45:03.307Z,82.2
2023-02-19T04:46:02.149Z,82.2
2023-02-19T04:47:03.309Z,82.2
2023-02-19T04:48:02.102Z,82.1
2023-02-19T04:49:03.258Z,82
2023-02-19T04:50:02.035Z,82
2023-02-19T04:51:01.557Z,81.7
2023-02-19T04:52:02.035Z,81.5
2023-02-19T04:53:03.228Z,81.6
2023-02-19T04:54:01.956Z,81.3
2023-02-19T04:55:01.503Z,81.5
2023-02-19T04:56:01.960Z,81.4
2023-02-19T04:57:01.417Z,81.4
2023-02-19T04:58:01.874Z,81.4
2023-02-19T04:59:01.395Z,81.2
2023-02-19T05:00:01.887Z,81.2
2023-02-19T05:01:01.412Z,81.1
2023-02-19T05:02:01.875Z,81
2023-02-19T05:03:02.997Z,81
2023-02-19T05:04:01.973Z,81
2023-02-19T05:05:03.016Z,80.7
2023-02-19T05:06:01.808Z,80.7
2023-02-19T05:07:02.270Z,80.6
2023-02-19T05:08:01.804Z,80.9
2023-02-19T05:09:02.250Z,80.7
2023-02-19T05:10:01.714Z,80.7
2023-02-19T05:11:02.280Z,80.5
2023-02-19T05:12:01.722Z,80.6
2023-02-19T05:13:02.195Z,80.7
2023-02-19T05:14:01.716Z,80.5
2023-02-19T05:15:03.219Z,80.3
2023-02-19T05:16:03.819Z,80.5
2023-02-19T05:17:03.070Z,80.2
2023-02-19T05:18:01.875Z,80.1
2023-02-19T05:19:01.401Z,79.9
2023-02-19T05:20:01.875Z,79.9
2023-02-19T05:21:01.311Z,80.1
2023-02-19T05:22:01.798Z,80.2
2023-02-19T05:23:02.290Z,80
2023-02-19T05:24:01.802Z,80
2023-02-19T05:25:03.942Z,79.8
2023-02-19T05:26:01.709Z,79.7
2023-02-19T05:27:02.226Z,79.7
2023-02-19T05:28:01.628Z,79.6
2023-02-19T05:29:02.112Z,79.5
2023-02-19T05:30:03.297Z,79.5
2023-02-19T05:31:02.084Z,79.2
2023-02-19T05:32:01.592Z,79.3
2023-02-19T05:33:02.034Z,79.1
2023-02-19T05:34:01.474Z,79.2
2023-02-19T05:35:01.980Z,79.5
2023-02-19T05:36:03.159Z,79.8
2023-02-19T05:37:01.949Z,79.9
2023-02-19T05:38:01.382Z,79.9
2023-02-19T05:39:01.882Z,80
2023-02-19T05:40:01.319Z,80.2
2023-02-19T05:41:01.820Z,80.2
2023-02-19T05:43:01.793Z,80
2023-02-19T05:44:02.276Z,80.1
2023-02-19T05:45:03.396Z,79.9
2023-02-19T05:46:02.284Z,79.7
2023-02-19T05:47:01.715Z,79.8
2023-02-19T05:48:02.193Z,79.7
2023-02-19T05:49:01.642Z,79.6
2023-02-19T05:50:02.126Z,79.6
2023-02-19T05:51:03.255Z,79.5
2023-02-19T05:52:03.800Z,79.7
2023-02-19T05:53:01.561Z,80
2023-02-19T05:54:02.052Z,80.2
2023-02-19T05:55:01.563Z,80.3
2023-02-19T05:56:02.040Z,80.4
2023-02-19T05:57:03.184Z,80.9
2023-02-19T05:58:03.640Z,80.9
2023-02-19T05:59:01.405Z,80.9
2023-02-19T06:00:01.877Z,80.9
2023-02-19T06:01:03.084Z,81.1
2023-02-19T06:02:01.808Z,81.2
2023-02-19T06:03:03.049Z,81.5
2023-02-19T06:04:03.584Z,81.9
2023-02-19T06:05:02.303Z,82
2023-02-19T06:06:01.725Z,82.4
2023-02-19T06:07:02.206Z,82.9
2023-02-19T06:08:01.712Z,83.3
2023-02-19T06:09:02.220Z,83.6
2023-02-19T06:10:01.659Z,83.9
2023-02-19T06:11:02.116Z,84.1
2023-02-19T06:12:01.763Z,84.2
2023-02-19T06:13:02.082Z,84.5
2023-02-19T06:14:01.611Z,84.6
2023-02-19T06:15:03.722Z,84.8
2023-02-19T06:16:01.578Z,85
2023-02-19T06:17:02.051Z,85.2
2023-02-19T06:18:03.251Z,85.2
2023-02-19T06:19:02.047Z,85.2
2023-02-19T06:20:01.506Z,85.3
2023-02-19T06:21:01.967Z,85.4
2023-02-19T06:22:01.385Z,85.5
2023-02-19T06:23:03.568Z,85.6
2023-02-19T06:24:03.077Z,85.8
2023-02-19T06:25:01.878Z,86
2023-02-19T06:26:01.315Z,86
2023-02-19T06:27:01.790Z,86.1
2023-02-19T06:29:01.817Z,86.3
2023-02-19T06:30:04.009Z,86.4
2023-02-19T06:31:01.835Z,86.5
2023-02-19T06:32:02.448Z,86.4
2023-02-19T06:33:03.394Z,86.5
2023-02-19T06:34:03.884Z,86.5
2023-02-19T06:35:03.406Z,86.6
2023-02-19T06:36:02.204Z,86.8
2023-02-19T06:37:01.680Z,86.8
2023-02-19T06:38:02.121Z,86.9
2023-02-19T06:39:03.318Z,87
2023-02-19T06:40:02.124Z,87
2023-02-19T06:41:01.565Z,87.1
2023-02-19T06:42:03.730Z,87.2
2023-02-19T06:43:01.577Z,87.3
2023-02-19T06:44:02.045Z,87.4
2023-02-19T06:45:01.489Z,87.5
2023-02-19T06:46:01.955Z,87.7
2023-02-19T06:47:01.489Z,87.8
2023-02-19T06:48:02.004Z,87.9
2023-02-19T06:49:03.079Z,87.9
2023-02-19T06:50:01.893Z,87.9
2023-02-19T06:51:01.422Z,87.9
2023-02-19T06:52:01.878Z,87.9
2023-02-19T06:53:01.338Z,87.9
2023-02-19T06:54:01.803Z,87.9
2023-02-19T06:55:02.283Z,87.9
2023-02-19T06:56:01.819Z,87.8
2023-02-19T06:57:02.320Z,87.8
2023-02-19T06:58:01.771Z,87.7
2023-02-19T06:59:02.232Z,87.5
2023-02-19T07:00:01.726Z,87.3
2023-02-19T07:01:02.253Z,87.3
2023-02-19T07:02:03.321Z,87.4
2023-02-19T07:03:03.868Z,87.4
2023-02-19T07:04:01.727Z,87.3
2023-02-19T07:05:02.117Z,87.2
2023-02-19T07:06:01.585Z,87
2023-02-19T07:07:03.794Z,86.9
2023-02-19T07:08:01.554Z,86.8
2023-02-19T07:09:02.037Z,86.8
2023-02-19T07:10:01.547Z,86.8
2023-02-19T07:11:02.055Z,86.6
2023-02-19T07:12:01.492Z,86.5
2023-02-19T07:13:01.965Z,86.5
2023-02-19T07:14:01.470Z,86.4
2023-02-19T07:15:02.986Z,86.3
2023-02-19T07:16:01.755Z,86.2
2023-02-19T07:17:02.205Z,86
2023-02-19T07:18:01.710Z,86
2023-02-19T07:19:02.202Z,85.9
2023-02-19T07:20:01.621Z,85.7
2023-02-19T07:21:02.120Z,85.8
2023-02-19T07:22:01.652Z,85.7
2023-02-19T07:23:02.119Z,85.7
2023-02-19T07:24:01.555Z,85.8
2023-02-19T07:25:02.029Z,85.7
2023-02-19T07:26:01.560Z,85.6
2023-02-19T07:27:02.055Z,85.5
2023-02-19T07:28:01.468Z,85.6
2023-02-19T07:29:01.953Z,85.9
2023-02-19T07:30:01.541Z,85.9
2023-02-19T07:31:02.014Z,85.5
2023-02-19T07:32:01.454Z,85.3
2023-02-19T07:33:01.884Z,85.4
2023-02-19T07:34:01.313Z,85.5
2023-02-19T07:35:01.872Z,85.3
2023-02-19T07:36:02.274Z,85.2
2023-02-19T07:37:01.795Z,85.1
2023-02-19T07:38:02.303Z,85.2
2023-02-19T07:39:03.393Z,85.1
2023-02-19T07:40:03.919Z,85.1
2023-02-19T07:41:01.636Z,84.9
2023-02-19T07:42:02.213Z,84.8
2023-02-19T07:43:01.656Z,84.7
2023-02-19T07:44:02.132Z,84.9
2023-02-19T07:45:01.648Z,85.1
2023-02-19T07:46:02.195Z,85.1
2023-02-19T07:47:01.565Z,85.1
2023-02-19T07:48:02.035Z,85
2023-02-19T07:49:01.585Z,84.9
2023-02-19T07:50:02.124Z,84.7
2023-02-19T07:51:03.163Z,84.5
2023-02-19T07:52:01.962Z,84.5
2023-02-19T07:53:01.483Z,84.5
2023-02-19T07:54:01.879Z,84.7
2023-02-19T07:55:01.474Z,84.6
2023-02-19T07:56:03.647Z,84.8
2023-02-19T07:57:01.315Z,85
2023-02-19T07:58:01.795Z,85
2023-02-19T07:59:03.958Z,85.2
2023-02-19T08:00:01.817Z,85.1
2023-02-19T08:01:02.354Z,85.2
2023-02-19T08:02:01.737Z,85.2
2023-02-19T08:03:02.285Z,85.4
2023-02-19T08:04:01.634Z,85.5
2023-02-19T08:05:03.960Z,85.5
2023-02-19T08:06:01.625Z,85.6
2023-02-19T08:07:02.111Z,85.6
2023-02-19T08:08:01.627Z,85.5
2023-02-19T08:09:02.125Z,85.4
2023-02-19T08:10:01.569Z,85.3
2023-02-19T08:11:02.055Z,85.3
2023-02-19T08:12:01.553Z,85.2
2023-02-19T08:13:02.046Z,85.2
2023-02-19T08:14:01.888Z,85.1
2023-02-19T08:15:01.327Z,85
2023-02-19T08:16:15.979Z,84.9
2023-02-19T08:17:02.301Z,84.9
2023-02-19T08:18:01.799Z,84.8
2023-02-19T08:19:03.964Z,84.9
2023-02-19T08:20:01.715Z,85
2023-02-19T08:21:02.201Z,85.1
2023-02-19T08:22:01.666Z,85.1
2023-02-19T08:23:02.125Z,84.9
2023-02-19T08:24:01.650Z,85
2023-02-19T08:25:02.123Z,85
2023-02-19T08:26:01.552Z,85
2023-02-19T08:27:02.072Z,84.9
2023-02-19T08:28:01.557Z,84.9
2023-02-19T08:29:02.043Z,85
2023-02-19T08:30:01.563Z,85
2023-02-19T08:31:03.735Z,85.1
2023-02-19T08:32:01.528Z,85.3
2023-02-19T08:33:02.340Z,85.1
2023-02-19T08:34:01.399Z,85.1
2023-02-19T08:35:03.550Z,85.1
2023-02-19T08:36:03.095Z,85.2
2023-02-19T08:37:01.880Z,85.1
2023-02-19T08:38:01.344Z,85.1
2023-02-19T08:39:01.811Z,85.2
2023-02-19T08:40:02.286Z,85.2
2023-02-19T08:41:01.788Z,85.2
2023-02-19T08:42:02.278Z,85
2023-02-19T08:43:01.767Z,85
2023-02-19T08:44:02.204Z,85.1
2023-02-19T08:45:03.412Z,85.3
2023-02-19T08:46:02.254Z,85.4
2023-02-19T08:47:01.649Z,85.3
2023-02-19T08:48:02.142Z,85.2
2023-02-19T08:49:01.576Z,85.2
2023-02-19T08:50:02.038Z,85.6
2023-02-19T08:51:03.160Z,85.7
2023-02-19T08:52:02.043Z,85.9
2023-02-19T08:53:01.491Z,86.2
2023-02-19T08:54:01.987Z,86.1
2023-02-19T08:55:01.395Z,86.2
2023-02-19T08:56:01.889Z,86.2
2023-02-19T08:57:01.406Z,86.4
2023-02-19T08:58:01.897Z,86.6
2023-02-19T08:59:01.342Z,86.8
2023-02-19T09:00:01.800Z,86.7
2023-02-19T09:01:02.322Z,86.7
2023-02-19T09:02:03.481Z,86.7
2023-02-19T09:03:02.282Z,86.6
2023-02-19T09:04:01.791Z,86.7
2023-02-19T09:05:02.198Z,86.3
2023-02-19T09:06:01.720Z,86.3
2023-02-19T09:07:02.200Z,86.3
2023-02-19T09:08:03.316Z,86.2
2023-02-19T09:09:02.230Z,86.4
2023-02-19T09:10:01.654Z,86.5
2023-02-19T09:11:02.108Z,86.4
2023-02-19T09:12:01.635Z,86.4
2023-02-19T09:13:02.117Z,86.4
2023-02-19T09:14:01.652Z,86.3
2023-02-19T09:15:02.119Z,86.2
2023-02-19T09:16:01.610Z,86.3
2023-02-19T09:17:02.038Z,86.2
2023-02-19T09:18:01.561Z,85.7
2023-02-19T09:19:02.063Z,85.9
2023-02-19T09:20:01.483Z,85.9
2023-02-19T09:21:01.955Z,85.9
2023-02-19T09:22:01.391Z,86
2023-02-19T09:23:01.900Z,86.2
2023-02-19T09:24:03.090Z,86.2
2023-02-19T09:25:01.872Z,86.3
2023-02-19T09:26:02.990Z,86.4
2023-02-19T09:27:01.814Z,86.5
2023-02-19T09:28:02.272Z,86.6
2023-02-19T09:29:03.474Z,86.8
2023-02-19T09:30:02.281Z,87
2023-02-19T09:31:03.462Z,86.9
2023-02-19T09:32:02.250Z,86.8
2023-02-19T09:33:01.735Z,86.8
2023-02-19T09:34:02.224Z,86.9
2023-02-19T09:35:01.633Z,87
2023-02-19T09:36:03.786Z,86.9
2023-02-19T09:37:03.322Z,86.9
2023-02-19T09:38:02.139Z,87
2023-02-19T09:39:01.573Z,87
2023-02-19T09:40:02.041Z,86.9
2023-02-19T09:41:01.555Z,87.1
2023-02-19T09:42:02.042Z,87
2023-02-19T09:43:01.972Z,87
2023-02-19T09:44:03.633Z,87.1
2023-02-19T09:45:01.507Z,87.1
2023-02-19T09:46:02.001Z,87.3
2023-02-19T09:47:01.408Z,87.3
2023-02-19T09:48:01.910Z,87.3
2023-02-19T09:49:01.398Z,87.3
2023-02-19T09:50:01.892Z,87.2
2023-02-19T09:51:03.012Z,87.1
2023-02-19T09:52:03.482Z,87
2023-02-19T09:53:02.289Z,86.9
2023-02-19T09:54:01.718Z,86.5
2023-02-19T09:55:02.295Z,86.5
2023-02-19T09:56:01.771Z,86.3
2023-02-19T09:57:02.216Z,86.3
2023-02-19T09:58:01.722Z,86.4
2023-02-19T09:59:02.209Z,86.5
2023-02-19T10:00:01.650Z,86.4
2023-02-19T10:01:03.807Z,86.5
2023-02-19T10:02:01.572Z,86.5
2023-02-19T10:03:02.029Z,86.2
2023-02-19T10:04:01.581Z,86.3
2023-02-19T10:05:02.096Z,86.3
2023-02-19T10:06:03.151Z,86.3
2023-02-19T10:07:01.973Z,86.3
2023-02-19T10:08:01.465Z,86.3
2023-02-19T10:09:01.881Z,86.4
2023-02-19T10:10:01.443Z,86.6
2023-02-19T10:11:01.887Z,86.9
2023-02-19T10:12:01.339Z,87
2023-02-19T10:13:03.117Z,87.1
2023-02-19T10:14:01.879Z,87.2
2023-02-19T10:15:01.341Z,87.1
2023-02-19T10:16:01.877Z,86.8
2023-02-19T10:17:02.288Z,86.7
2023-02-19T10:18:01.793Z,86.8
2023-02-19T10:19:02.278Z,86.4
2023-02-19T10:20:01.719Z,86
2023-02-19T10:21:02.208Z,85.8
2023-02-19T10:22:01.742Z,85.4
2023-02-19T10:23:02.195Z,85.3
2023-02-19T10:24:01.637Z,85.6
2023-02-19T10:25:02.130Z,85.6
2023-02-19T10:26:01.677Z,85.6
2023-02-19T10:27:02.105Z,86
2023-02-19T10:28:01.575Z,86.2
2023-02-19T10:29:02.036Z,86.1
2023-02-19T10:30:01.651Z,85.8
2023-02-19T10:31:02.058Z,86.2
2023-02-19T10:32:01.511Z,86.7
2023-02-19T10:33:01.953Z,86.5
2023-02-19T10:34:01.397Z,86.2
2023-02-19T10:35:01.886Z,86
2023-02-19T10:36:01.415Z,86.2
2023-02-19T10:37:01.867Z,85.9
2023-02-19T10:38:02.993Z,85.9
2023-02-19T10:39:01.937Z,85.8
2023-02-19T10:40:01.317Z,86
2023-02-19T10:41:01.792Z,86.1
2023-02-19T10:42:02.274Z,86.3
2023-02-19T10:43:01.810Z,86.5
2023-02-19T10:44:02.300Z,86.5
2023-02-19T10:45:01.712Z,86.6
2023-02-19T10:46:03.898Z,86.9
2023-02-19T10:47:01.630Z,86.8
2023-02-19T10:48:02.197Z,86.7
2023-02-19T10:49:01.633Z,86.4
2023-02-19T10:50:04.788Z,86.3
2023-02-19T10:51:01.640Z,86.4
2023-02-19T10:52:03.791Z,86.5
2023-02-19T10:53:01.577Z,86.3
2023-02-19T10:54:02.045Z,86.2
2023-02-19T10:55:01.570Z,86.1
2023-02-19T10:56:02.063Z,86
2023-02-19T10:57:01.513Z,86.2
2023-02-19T10:58:01.963Z,86.2
2023-02-19T10:59:01.407Z,86.3
2023-02-19T11:00:01.896Z,86.3
2023-02-19T11:01:05.347Z,86.3
2023-02-19T11:02:01.978Z,86.2
2023-02-19T11:03:01.408Z,86.1
2023-02-19T11:04:01.943Z,86.4
2023-02-19T11:05:01.331Z,86.5
2023-02-19T11:06:01.830Z,86.6
2023-02-19T11:07:02.292Z,86.7
2023-02-19T11:08:01.818Z,86.8
2023-02-19T11:09:02.291Z,86.9
2023-02-19T11:10:01.738Z,86.9
2023-02-19T11:11:02.198Z,86.8
2023-02-19T11:12:01.722Z,86.2
2023-02-19T11:13:03.218Z,85.8
2023-02-19T11:14:01.957Z,85.8
2023-02-19T11:15:03.077Z,85.8
2023-02-19T11:16:01.963Z,85.7
2023-02-19T11:17:03.007Z,85.7
2023-02-19T11:18:01.817Z,85.7
2023-02-19T11:19:02.287Z,85.9
2023-02-19T11:20:03.477Z,86.7
2023-02-19T11:21:02.304Z,86.8
2023-02-19T11:22:01.744Z,87.2
2023-02-19T11:23:02.224Z,87.4
2023-02-19T11:24:01.724Z,87.3
2023-02-19T11:25:02.201Z,86.4
2023-02-19T11:26:01.645Z,85.9
2023-02-19T11:27:02.144Z,86.3
2023-02-19T11:28:01.661Z,86.4
2023-02-19T11:29:02.128Z,86
2023-02-19T11:30:01.613Z,85.3
2023-02-19T11:31:02.083Z,85.5
2023-02-19T11:32:01.697Z,85.7
2023-02-19T11:33:02.052Z,85.4
2023-02-19T11:34:01.481Z,85.3
2023-02-19T11:35:01.954Z,84.7
2023-02-19T11:36:01.409Z,83.5
2023-02-19T11:37:01.883Z,83.1
2023-02-19T11:38:01.441Z,83.8
2023-02-19T11:39:01.891Z,84.3
2023-02-19T11:40:02.998Z,84.4
2023-02-19T11:41:01.813Z,84.7
2023-02-19T11:42:02.312Z,84.4
2023-02-19T11:43:01.825Z,84.9
2023-02-19T11:44:02.309Z,84.4
2023-02-19T11:45:01.726Z,83.2
2023-02-19T11:46:02.221Z,83.8
2023-02-19T11:47:01.743Z,84
2023-02-19T11:48:02.229Z,83.8
2023-02-19T11:49:01.742Z,83.8
2023-02-19T11:50:02.236Z,83
2023-02-19T11:51:01.657Z,83.4
2023-02-19T11:52:03.812Z,83.5
2023-02-19T11:53:01.672Z,82.8
2023-02-19T11:54:02.134Z,82.4
2023-02-19T11:55:01.568Z,81.7
2023-02-19T11:56:02.047Z,81.7
2023-02-19T11:57:01.495Z,81
2023-02-19T11:58:01.987Z,81.9
2023-02-19T11:59:01.514Z,82.7
2023-02-19T12:00:01.956Z,81.6
2023-02-19T12:01:01.481Z,81.6
2023-02-19T12:02:02.140Z,81.6
2023-02-19T12:03:01.402Z,81.7
2023-02-19T12:04:03.586Z,81.3
2023-02-19T12:05:03.034Z,80.8
2023-02-19T12:06:01.790Z,81.9
2023-02-19T12:07:02.295Z,82.2
2023-02-19T12:08:01.798Z,82.1
2023-02-19T12:09:02.304Z,82.9
2023-02-19T12:10:01.735Z,81.5
2023-02-19T12:11:02.235Z,80.7
2023-02-19T12:12:01.723Z,80.9
2023-02-19T12:13:02.208Z,81.2
2023-02-19T12:14:01.681Z,81
2023-02-19T12:15:02.112Z,82.2
2023-02-19T12:16:01.666Z,82.9
2023-02-19T12:17:03.797Z,81.6
2023-02-19T12:18:03.239Z,80.6
2023-02-19T12:19:02.324Z,81.8
2023-02-19T12:20:01.597Z,82.2
2023-02-19T12:21:02.201Z,81.9
2023-02-19T12:22:03.150Z,80.6
2023-02-19T12:23:02.113Z,81.3
2023-02-19T12:24:03.304Z,80.8
2023-02-19T12:25:02.104Z,81.6
2023-02-19T12:26:01.550Z,83.2
2023-02-19T12:27:03.715Z,83.8
2023-02-19T12:29:01.962Z,81.9
2023-02-19T12:30:02.567Z,82
2023-02-19T12:31:02.033Z,83.7
2023-02-19T12:32:04.110Z,83.8
2023-02-19T12:33:03.568Z,84
2023-02-19T12:34:02.370Z,83
2023-02-19T12:35:01.976Z,82.2
2023-02-19T12:36:04.009Z,82.3
2023-02-19T12:37:03.466Z,82
2023-02-19T12:38:02.301Z,82.5
2023-02-19T12:39:01.620Z,81
2023-02-19T12:40:02.253Z,79.4
2023-02-19T12:41:03.499Z,79.8
2023-02-19T12:42:02.185Z,80.1
2023-02-19T12:43:03.287Z,80.4
2023-02-19T12:44:03.794Z,79.9
2023-02-19T12:45:01.686Z,80.1
2023-02-19T12:46:02.166Z,80.7
2023-02-19T12:47:01.557Z,79.9
2023-02-19T12:48:03.720Z,79.7
2023-02-19T12:49:03.114Z,80.4
2023-02-19T12:50:02.058Z,81.8
2023-02-19T12:51:04.140Z,81.6
2023-02-19T12:52:01.967Z,80.6
2023-02-19T12:53:02.452Z,80.3
2023-02-19T12:54:03.561Z,80.1
2023-02-19T12:55:04.156Z,79.3
2023-02-19T12:56:01.867Z,80.5
2023-02-19T12:57:02.279Z,81.4
2023-02-19T12:58:01.800Z,81.3
2023-02-19T12:59:02.284Z,78.1
2023-02-19T13:00:01.826Z,80.1
2023-02-19T13:01:02.329Z,81.4
2023-02-19T13:02:01.756Z,80.5
2023-02-19T13:03:03.865Z,79.7
2023-02-19T13:04:01.643Z,80.4
2023-02-19T13:05:02.244Z,81.3
2023-02-19T13:06:01.765Z,81.3
2023-02-19T13:07:02.064Z,81.6
2023-02-19T13:08:03.327Z,81.8
2023-02-19T13:09:06.988Z,81.5
2023-02-19T13:10:01.559Z,81.7
2023-02-19T13:11:03.079Z,81.3
2023-02-19T13:12:01.723Z,80.4
2023-02-19T13:13:02.178Z,78.6
2023-02-19T13:14:01.619Z,80.1
2023-02-19T13:15:02.330Z,79.5
2023-02-19T13:16:01.659Z,79.5
2023-02-19T13:17:02.197Z,79.7
2023-02-19T13:18:01.696Z,80.3
2023-02-19T13:19:02.106Z,80.6
2023-02-19T13:20:03.344Z,80.2
2023-02-19T13:21:01.952Z,80.4
2023-02-19T13:22:02.416Z,79.8
2023-02-19T13:23:01.940Z,80.4
2023-02-19T13:24:02.411Z,80.1
2023-02-19T13:25:03.626Z,80.5
2023-02-19T13:26:02.333Z,81.2
2023-02-19T13:27:01.842Z,81.2
2023-02-19T13:28:02.332Z,81.2
2023-02-19T13:29:02.012Z,81.1
2023-02-19T13:30:02.435Z,81.4